createdAt,value
2023-04-29T00:00:00.201Z,937.16
2023-04-29T00:01:00.172Z,937.17
2023-04-29T00:02:00.293Z,937.16
2023-04-29T00:03:00.466Z,937.13
2023-04-29T00:04:00.339Z,937.10
2023-04-29T00:05:00.635Z,937.10
2023-04-29T00:06:00.450Z,937.08
2023-04-29T00:07:00.272Z,937.08
2023-04-29T00:08:00.428Z,937.10
2023-04-29T00:09:00.286Z,937.11
2023-04-29T00:10:00.307Z,937.09
2023-04-29T00:11:00.317Z,937.11
2023-04-29T00:12:00.339Z,937.14
2023-04-29T00:13:00.333Z,937.15
2023-04-29T00:14:00.496Z,937.14
2023-04-29T00:15:00.359Z,937.12
2023-04-29T00:16:00.412Z,937.17
2023-04-29T00:17:00.409Z,937.18
2023-04-29T00:18:00.445Z,937.17
2023-04-29T00:19:00.412Z,937.14
2023-04-29T00:20:00.529Z,937.14
2023-04-29T00:21:00.441Z,937.11
2023-04-29T00:22:00.475Z,937.06
2023-04-29T00:23:00.474Z,937.10
2023-04-29T00:24:00.486Z,937.10
2023-04-29T00:25:00.511Z,937.10
2023-04-29T00:26:00.650Z,937.13
2023-04-29T00:27:00.528Z,937.16
2023-04-29T00:28:00.541Z,937.15
2023-04-29T00:29:00.566Z,937.17
2023-04-29T00:30:00.568Z,937.14
2023-04-29T00:31:00.622Z,937.15
2023-04-29T00:32:00.696Z,937.11
2023-04-29T00:33:00.736Z,937.12
2023-04-29T00:34:00.629Z,937.13
2023-04-29T00:35:00.638Z,937.12
2023-04-29T00:36:00.643Z,937.11
2023-04-29T00:37:00.670Z,937.10
2023-04-29T00:38:00.778Z,937.08
2023-04-29T00:39:00.681Z,937.05
2023-04-29T00:40:00.700Z,937.04
2023-04-29T00:41:00.712Z,937.01
2023-04-29T00:42:00.744Z,937.00
2023-04-29T00:43:00.846Z,937.03
2023-04-29T00:44:00.751Z,937.05
2023-04-29T00:45:00.777Z,937.06
2023-04-29T00:46:00.809Z,937.03
2023-04-29T00:47:00.799Z,937.04
2023-04-29T00:48:00.828Z,937.04
2023-04-29T00:49:00.928Z,937.00
2023-04-29T00:50:00.843Z,936.99
2023-04-29T00:51:00.850Z,937.01
2023-04-29T00:52:01.472Z,937.00
2023-04-29T00:53:00.909Z,936.97
2023-04-29T00:54:00.889Z,936.94
2023-04-29T00:55:01.015Z,936.99
2023-04-29T00:56:00.913Z,936.97
2023-04-29T00:57:00.937Z,936.98
2023-04-29T00:58:00.960Z,936.97
2023-04-29T00:59:00.952Z,937.00
2023-04-29T01:00:00.982Z,936.99
2023-04-29T01:01:01.081Z,937.01
2023-04-29T01:02:01.069Z,937.01
2023-04-29T01:03:01.100Z,937.01
2023-04-29T01:04:01.282Z,937.02
2023-04-29T01:05:01.049Z,937.01
2023-04-29T01:06:01.047Z,937.01
2023-04-29T01:07:01.166Z,937.03
2023-04-29T01:08:01.079Z,937.05
2023-04-29T01:09:01.096Z,937.10
2023-04-29T01:10:01.112Z,937.10
2023-04-29T01:11:01.115Z,937.10
2023-04-29T01:12:01.236Z,937.09
2023-04-29T01:13:01.152Z,937.08
2023-04-29T01:14:01.174Z,937.05
2023-04-29T01:15:01.207Z,937.02
2023-04-29T01:16:01.232Z,937.00
2023-04-29T01:17:01.298Z,937.00
2023-04-29T01:18:01.252Z,936.96
2023-04-29T01:19:01.232Z,937.00
2023-04-29T01:20:01.243Z,936.94
2023-04-29T01:21:01.250Z,936.93
2023-04-29T01:22:01.376Z,936.93
2023-04-29T01:23:01.313Z,936.92
2023-04-29T01:24:01.300Z,936.90
2023-04-29T01:25:01.312Z,936.93
2023-04-29T01:26:01.326Z,936.94
2023-04-29T01:27:01.341Z,936.91
2023-04-29T01:28:01.454Z,936.93
2023-04-29T01:29:01.378Z,936.95
2023-04-29T01:30:01.416Z,936.94
2023-04-29T01:31:01.410Z,936.96
2023-04-29T01:32:01.407Z,936.98
2023-04-29T01:33:01.532Z,936.99
2023-04-29T01:34:01.435Z,936.99
2023-04-29T01:35:01.440Z,937.00
2023-04-29T01:36:01.454Z,937.00
2023-04-29T01:37:01.470Z,937.01
2023-04-29T01:38:01.580Z,937.02
2023-04-29T01:39:01.506Z,937.01
2023-04-29T01:40:01.510Z,937.07
2023-04-29T01:41:01.527Z,937.05
2023-04-29T01:42:01.550Z,937.09
2023-04-29T01:43:01.577Z,937.09
2023-04-29T01:44:01.669Z,937.10
2023-04-29T01:45:01.582Z,937.06
2023-04-29T01:46:01.604Z,937.07
2023-04-29T01:47:01.717Z,937.10
2023-04-29T01:48:01.674Z,937.06
2023-04-29T01:49:01.635Z,937.12
2023-04-29T01:50:01.751Z,937.13
2023-04-29T01:51:01.668Z,937.09
2023-04-29T01:52:01.675Z,937.09
2023-04-29T01:53:01.686Z,937.13
2023-04-29T01:54:01.739Z,937.10
2023-04-29T01:55:01.733Z,937.08
2023-04-29T01:56:01.822Z,937.11
2023-04-29T01:57:01.742Z,937.06
2023-04-29T01:58:01.757Z,937.05
2023-04-29T01:59:01.763Z,937.04
2023-04-29T02:00:01.775Z,937.03
2023-04-29T02:01:01.949Z,936.97
2023-04-29T02:02:01.837Z,936.99
2023-04-29T02:03:01.927Z,936.93
2023-04-29T02:04:01.979Z,936.96
2023-04-29T02:05:01.963Z,937.03
2023-04-29T02:06:01.863Z,937.01
2023-04-29T02:07:01.988Z,937.05
2023-04-29T02:08:01.897Z,937.08
2023-04-29T02:09:01.908Z,937.06
2023-04-29T02:10:01.955Z,937.05
2023-04-29T02:11:01.931Z,937.07
2023-04-29T02:12:01.952Z,937.07
2023-04-29T02:13:02.060Z,937.05
2023-04-29T02:14:01.962Z,937.00
2023-04-29T02:15:01.991Z,936.98
2023-04-29T02:16:02.062Z,937.00
2023-04-29T02:17:02.018Z,936.99
2023-04-29T02:18:02.190Z,936.98
2023-04-29T02:19:02.046Z,937.01
2023-04-29T02:20:02.063Z,936.99
2023-04-29T02:21:02.144Z,936.96
2023-04-29T02:22:02.074Z,936.98
2023-04-29T02:23:02.092Z,937.03
2023-04-29T02:24:02.202Z,937.01
2023-04-29T02:25:02.121Z,936.99
2023-04-29T02:26:02.131Z,937.03
2023-04-29T02:27:02.151Z,936.97
2023-04-29T02:28:02.168Z,936.94
2023-04-29T02:29:02.177Z,936.96
2023-04-29T02:30:02.293Z,936.98
2023-04-29T02:31:02.202Z,936.95
2023-04-29T02:32:02.248Z,936.90
2023-04-29T02:33:02.265Z,936.92
2023-04-29T02:34:02.265Z,936.89
2023-04-29T02:35:02.366Z,936.89
2023-04-29T02:36:02.307Z,936.89
2023-04-29T02:37:02.335Z,936.86
2023-04-29T02:38:02.295Z,936.86
2023-04-29T02:39:02.329Z,936.91
2023-04-29T02:40:02.314Z,936.88
2023-04-29T02:41:02.449Z,936.89
2023-04-29T02:42:02.351Z,936.87
2023-04-29T02:43:02.421Z,936.90
2023-04-29T02:44:02.390Z,936.83
2023-04-29T02:45:02.397Z,936.85
2023-04-29T02:46:02.443Z,936.83
2023-04-29T02:47:02.528Z,936.87
2023-04-29T02:48:02.475Z,936.83
2023-04-29T02:49:02.456Z,936.86
2023-04-29T02:50:02.507Z,936.92
2023-04-29T02:51:02.478Z,936.83
2023-04-29T02:52:02.490Z,936.82
2023-04-29T02:53:02.596Z,936.83
2023-04-29T02:54:02.528Z,936.79
2023-04-29T02:55:02.523Z,936.76
2023-04-29T02:56:02.569Z,936.75
2023-04-29T02:57:02.555Z,936.80
2023-04-29T02:58:02.559Z,936.75
2023-04-29T02:59:02.679Z,936.73
2023-04-29T03:00:02.597Z,936.78
2023-04-29T03:01:02.665Z,936.77
2023-04-29T03:02:02.613Z,936.78
2023-04-29T03:03:02.763Z,936.77
2023-04-29T03:04:03.000Z,936.72
2023-04-29T03:05:02.668Z,936.71
2023-04-29T03:06:02.692Z,936.68
2023-04-29T03:07:03.690Z,936.67
2023-04-29T03:08:02.703Z,936.63
2023-04-29T03:09:02.831Z,936.63
2023-04-29T03:10:02.732Z,936.67
2023-04-29T03:11:02.735Z,936.68
2023-04-29T03:12:02.753Z,936.67
2023-04-29T03:13:02.765Z,936.65
2023-04-29T03:14:02.795Z,936.68
2023-04-29T03:15:02.887Z,936.69
2023-04-29T03:16:02.813Z,936.69
2023-04-29T03:17:02.936Z,936.66
2023-04-29T03:18:02.847Z,936.69
2023-04-29T03:19:02.853Z,936.64
2023-04-29T03:20:02.960Z,936.67
2023-04-29T03:21:02.874Z,936.67
2023-04-29T03:22:02.904Z,936.67
2023-04-29T03:23:02.897Z,936.69
2023-04-29T03:24:02.911Z,936.70
2023-04-29T03:25:02.957Z,936.67
2023-04-29T03:26:03.095Z,936.68
2023-04-29T03:27:02.948Z,936.68
2023-04-29T03:28:02.962Z,936.68
2023-04-29T03:29:02.991Z,936.68
2023-04-29T03:30:02.989Z,936.67
2023-04-29T03:31:03.022Z,936.64
2023-04-29T03:32:03.106Z,936.63
2023-04-29T03:33:03.098Z,936.63
2023-04-29T03:34:03.057Z,936.61
2023-04-29T03:35:03.054Z,936.62
2023-04-29T03:36:03.078Z,936.61
2023-04-29T03:37:03.089Z,936.57
2023-04-29T03:38:03.215Z,936.63
2023-04-29T03:39:03.117Z,936.61
2023-04-29T03:40:03.131Z,936.58
2023-04-29T03:41:03.155Z,936.55
2023-04-29T03:42:03.154Z,936.53
2023-04-29T03:43:03.249Z,936.50
2023-04-29T03:44:03.185Z,936.50
2023-04-29T03:45:03.183Z,936.49
2023-04-29T03:46:03.207Z,936.50
2023-04-29T03:47:03.209Z,936.50
2023-04-29T03:48:03.237Z,936.47
2023-04-29T03:49:03.344Z,936.49
2023-04-29T03:50:03.244Z,936.46
2023-04-29T03:51:03.280Z,936.50
2023-04-29T03:52:03.271Z,936.47
2023-04-29T03:53:03.284Z,936.47
2023-04-29T03:54:03.777Z,936.44
2023-04-29T03:55:03.416Z,936.47
2023-04-29T03:56:03.337Z,936.41
2023-04-29T03:57:03.338Z,936.41
2023-04-29T03:58:03.347Z,936.40
2023-04-29T03:59:03.370Z,936.44
2023-04-29T04:00:03.487Z,936.45
2023-04-29T04:01:03.392Z,936.44
2023-04-29T04:02:03.442Z,936.45
2023-04-29T04:03:05.549Z,936.41
2023-04-29T04:04:03.668Z,936.36
2023-04-29T04:05:03.467Z,936.36
2023-04-29T04:06:03.555Z,936.36
2023-04-29T04:07:03.475Z,936.39
2023-04-29T04:08:03.483Z,936.27
2023-04-29T04:09:03.497Z,936.30
2023-04-29T04:10:03.529Z,936.29
2023-04-29T04:11:03.626Z,936.28
2023-04-29T04:12:03.542Z,936.21
2023-04-29T04:13:03.556Z,936.22
2023-04-29T04:14:03.569Z,936.17
2023-04-29T04:15:03.582Z,936.18
2023-04-29T04:16:03.631Z,936.14
2023-04-29T04:17:03.701Z,936.19
2023-04-29T04:18:03.656Z,936.12
2023-04-29T04:19:03.638Z,936.15
2023-04-29T04:20:03.642Z,936.10
2023-04-29T04:21:03.664Z,936.09
2023-04-29T04:22:03.765Z,936.07
2023-04-29T04:23:03.678Z,936.08
2023-04-29T04:24:03.697Z,936.13
2023-04-29T04:25:03.718Z,936.09
2023-04-29T04:26:03.760Z,936.08
2023-04-29T04:27:03.745Z,936.07
2023-04-29T04:28:03.850Z,936.03
2023-04-29T04:29:03.764Z,936.06
2023-04-29T04:30:03.801Z,936.02
2023-04-29T04:31:03.790Z,936.00
2023-04-29T04:32:03.832Z,936.00
2023-04-29T04:33:03.930Z,936.03
2023-04-29T04:34:03.847Z,936.03
2023-04-29T04:35:03.860Z,936.00
2023-04-29T04:36:03.864Z,936.01
2023-04-29T04:37:03.868Z,936.01
2023-04-29T04:38:03.996Z,936.02
2023-04-29T04:39:03.904Z,936.01
2023-04-29T04:40:03.920Z,936.00
2023-04-29T04:41:03.934Z,936.02
2023-04-29T04:42:03.990Z,936.05
2023-04-29T04:43:03.962Z,936.01
2023-04-29T04:44:04.066Z,935.99
2023-04-29T04:45:03.989Z,935.97
2023-04-29T04:46:04.063Z,935.98
2023-04-29T04:47:04.011Z,936.00
2023-04-29T04:48:04.049Z,935.98
2023-04-29T04:49:04.134Z,936.00
2023-04-29T04:50:04.057Z,936.01
2023-04-29T04:51:04.065Z,935.98
2023-04-29T04:52:04.087Z,936.01
2023-04-29T04:53:04.099Z,935.97
2023-04-29T04:54:04.104Z,935.93
2023-04-29T04:55:04.211Z,935.94
2023-04-29T04:56:04.135Z,935.91
2023-04-29T04:57:04.147Z,935.93
2023-04-29T04:58:04.171Z,935.91
2023-04-29T04:59:04.176Z,935.92
2023-04-29T05:00:04.334Z,935.90
2023-04-29T05:01:04.275Z,935.91
2023-04-29T05:02:04.294Z,935.82
2023-04-29T05:03:04.453Z,935.87
2023-04-29T05:04:04.403Z,935.87
2023-04-29T05:05:04.344Z,935.88
2023-04-29T05:06:04.259Z,935.88
2023-04-29T05:07:04.293Z,935.90
2023-04-29T05:08:04.283Z,935.84
2023-04-29T05:09:04.306Z,935.89
2023-04-29T05:10:04.316Z,935.85
2023-04-29T05:11:04.430Z,935.85
2023-04-29T05:12:04.346Z,935.83
2023-04-29T05:13:04.351Z,935.82
2023-04-29T05:14:04.400Z,935.78
2023-04-29T05:15:04.402Z,935.80
2023-04-29T05:16:06.355Z,935.80
2023-04-29T05:17:04.507Z,935.80
2023-04-29T05:18:04.483Z,935.80
2023-04-29T05:19:04.443Z,935.83
2023-04-29T05:20:04.446Z,935.79
2023-04-29T05:21:04.455Z,935.80
2023-04-29T05:22:04.578Z,935.77
2023-04-29T05:23:04.505Z,935.78
2023-04-29T05:24:04.506Z,935.79
2023-04-29T05:25:04.512Z,935.76
2023-04-29T05:26:04.529Z,935.72
2023-04-29T05:27:04.537Z,935.71
2023-04-29T05:28:04.676Z,935.71
2023-04-29T05:29:04.564Z,935.68
2023-04-29T05:30:04.601Z,935.66
2023-04-29T05:31:04.622Z,935.69
2023-04-29T05:32:04.599Z,935.72
2023-04-29T05:33:04.785Z,935.68
2023-04-29T05:34:04.638Z,935.69
2023-04-29T05:35:07.210Z,935.67
2023-04-29T05:36:04.672Z,935.66
2023-04-29T05:37:04.684Z,935.63
2023-04-29T05:38:04.682Z,935.63
2023-04-29T05:39:04.806Z,935.63
2023-04-29T05:40:04.792Z,935.63
2023-04-29T05:41:04.723Z,935.65
2023-04-29T05:42:04.742Z,935.63
2023-04-29T05:43:04.756Z,935.65
2023-04-29T05:44:04.879Z,935.63
2023-04-29T05:45:04.793Z,935.66
2023-04-29T05:46:04.831Z,935.65
2023-04-29T05:47:04.812Z,935.67
2023-04-29T05:48:04.914Z,935.65
2023-04-29T05:49:04.938Z,935.65
2023-04-29T05:50:04.920Z,935.64
2023-04-29T05:51:04.892Z,935.64
2023-04-29T05:52:04.863Z,935.61
2023-04-29T05:53:04.877Z,935.59
2023-04-29T05:54:04.994Z,935.60
2023-04-29T05:55:04.918Z,935.56
2023-04-29T05:56:04.924Z,935.57
2023-04-29T05:57:04.937Z,935.54
2023-04-29T05:58:04.993Z,935.55
2023-04-29T05:59:04.959Z,935.54
2023-04-29T06:00:05.070Z,935.51
2023-04-29T06:01:05.014Z,935.56
2023-04-29T06:02:05.033Z,935.53
2023-04-29T06:03:05.156Z,935.53
2023-04-29T06:04:05.163Z,935.55
2023-04-29T06:05:05.365Z,935.57
2023-04-29T06:06:05.069Z,935.54
2023-04-29T06:07:05.091Z,935.59
2023-04-29T06:08:05.077Z,935.60
2023-04-29T06:09:08.612Z,935.59
2023-04-29T06:10:05.102Z,935.55
2023-04-29T06:11:05.234Z,935.58
2023-04-29T06:12:05.131Z,935.58
2023-04-29T06:13:05.149Z,935.62
2023-04-29T06:14:05.162Z,935.60
2023-04-29T06:15:05.178Z,935.59
2023-04-29T06:16:05.328Z,935.60
2023-04-29T06:17:05.202Z,935.55
2023-04-29T06:18:05.293Z,935.55
2023-04-29T06:19:05.227Z,935.59
2023-04-29T06:20:05.234Z,935.56
2023-04-29T06:21:05.267Z,935.54
2023-04-29T06:22:05.367Z,935.53
2023-04-29T06:23:05.281Z,935.52
2023-04-29T06:24:05.284Z,935.48
2023-04-29T06:25:05.309Z,935.51
2023-04-29T06:26:05.316Z,935.52
2023-04-29T06:27:05.337Z,935.54
2023-04-29T06:28:05.447Z,935.59
2023-04-29T06:29:05.362Z,935.52
2023-04-29T06:30:05.364Z,935.58
2023-04-29T06:31:05.431Z,935.54
2023-04-29T06:32:05.456Z,935.58
2023-04-29T06:33:05.464Z,935.58
2023-04-29T06:34:05.557Z,935.60
2023-04-29T06:35:05.448Z,935.59
2023-04-29T06:36:05.446Z,935.60
2023-04-29T06:37:05.458Z,935.63
2023-04-29T06:38:05.476Z,935.60
2023-04-29T06:39:05.586Z,935.58
2023-04-29T06:40:05.505Z,935.58
2023-04-29T06:41:05.509Z,935.59
2023-04-29T06:42:05.530Z,935.56
2023-04-29T06:43:05.540Z,935.53
2023-04-29T06:44:05.556Z,935.53
2023-04-29T06:45:05.667Z,935.50
2023-04-29T06:46:05.584Z,935.50
2023-04-29T06:47:05.662Z,935.51
2023-04-29T06:48:05.706Z,935.57
2023-04-29T06:49:05.623Z,935.58
2023-04-29T06:50:05.756Z,935.52
2023-04-29T06:51:05.649Z,935.52
2023-04-29T06:52:05.656Z,935.52
2023-04-29T06:53:05.687Z,935.54
2023-04-29T06:54:05.696Z,935.53
2023-04-29T06:55:05.703Z,935.48
2023-04-29T06:56:05.812Z,935.49
2023-04-29T06:57:05.728Z,935.47
2023-04-29T06:58:05.731Z,935.44
2023-04-29T06:59:05.750Z,935.43
2023-04-29T07:00:05.772Z,935.41
2023-04-29T07:01:05.909Z,935.41
2023-04-29T07:02:05.793Z,935.41
2023-04-29T07:03:05.911Z,935.42
2023-04-29T07:04:05.848Z,935.43
2023-04-29T07:05:05.861Z,935.42
2023-04-29T07:06:05.859Z,935.44
2023-04-29T07:07:05.953Z,935.43
2023-04-29T07:08:05.866Z,935.40
2023-04-29T07:09:05.882Z,935.44
2023-04-29T07:10:05.894Z,935.39
2023-04-29T07:11:05.921Z,935.35
2023-04-29T07:12:05.932Z,935.39
2023-04-29T07:13:06.038Z,935.38
2023-04-29T07:14:05.943Z,935.36
2023-04-29T07:15:05.974Z,935.37
2023-04-29T07:16:05.990Z,935.35
2023-04-29T07:17:06.114Z,935.34
2023-04-29T07:18:06.186Z,935.34
2023-04-29T07:19:06.013Z,935.36
2023-04-29T07:20:06.035Z,935.33
2023-04-29T07:21:06.036Z,935.34
2023-04-29T07:22:06.073Z,935.33
2023-04-29T07:23:06.198Z,935.37
2023-04-29T07:24:06.094Z,935.38
2023-04-29T07:25:06.098Z,935.33
2023-04-29T07:26:06.112Z,935.35
2023-04-29T07:27:06.115Z,935.31
2023-04-29T07:28:06.232Z,935.35
2023-04-29T07:29:06.141Z,935.34
2023-04-29T07:30:06.157Z,935.32
2023-04-29T07:31:06.216Z,935.37
2023-04-29T07:32:06.202Z,935.33
2023-04-29T07:33:06.316Z,935.37
2023-04-29T07:34:06.365Z,935.36
2023-04-29T07:35:06.224Z,935.34
2023-04-29T07:36:06.233Z,935.34
2023-04-29T07:37:06.262Z,935.39
2023-04-29T07:38:06.276Z,935.32
2023-04-29T07:39:06.285Z,935.34
2023-04-29T07:40:06.386Z,935.34
2023-04-29T07:41:06.305Z,935.32
2023-04-29T07:42:06.311Z,935.36
2023-04-29T07:43:06.324Z,935.33
2023-04-29T07:44:06.343Z,935.35
2023-04-29T07:45:06.563Z,935.37
2023-04-29T07:46:06.485Z,935.34
2023-04-29T07:47:06.380Z,935.39
2023-04-29T07:48:06.629Z,935.36
2023-04-29T07:49:06.406Z,935.38
2023-04-29T07:50:06.419Z,935.35
2023-04-29T07:51:06.442Z,935.36
2023-04-29T07:52:06.538Z,935.40
2023-04-29T07:53:06.455Z,935.34
2023-04-29T07:54:06.502Z,935.36
2023-04-29T07:55:06.498Z,935.37
2023-04-29T07:56:06.524Z,935.37
2023-04-29T07:57:06.712Z,935.42
2023-04-29T07:58:06.642Z,935.44
2023-04-29T07:59:06.543Z,935.48
2023-04-29T08:00:06.556Z,935.48
2023-04-29T08:01:06.590Z,935.49
2023-04-29T08:02:06.584Z,935.49
2023-04-29T08:03:06.767Z,935.50
2023-04-29T08:04:06.926Z,935.52
2023-04-29T08:05:07.066Z,935.54
2023-04-29T08:06:06.702Z,935.57
2023-04-29T08:07:06.642Z,935.57
2023-04-29T08:08:06.645Z,935.58
2023-04-29T08:09:06.769Z,935.58
2023-04-29T08:10:06.694Z,935.58
2023-04-29T08:11:06.783Z,935.54
2023-04-29T08:12:06.699Z,935.54
2023-04-29T08:13:06.715Z,935.56
2023-04-29T08:14:06.724Z,935.55
2023-04-29T08:15:09.035Z,935.59
2023-04-29T08:16:06.775Z,935.60
2023-04-29T08:17:06.764Z,935.56
2023-04-29T08:18:06.839Z,935.57
2023-04-29T08:19:06.802Z,935.63
2023-04-29T08:20:06.824Z,935.64
2023-04-29T08:21:06.917Z,935.64
2023-04-29T08:22:06.830Z,935.66
2023-04-29T08:23:06.846Z,935.63
2023-04-29T08:24:06.856Z,935.67
2023-04-29T08:25:07.065Z,935.64
2023-04-29T08:26:07.008Z,935.70
2023-04-29T08:27:06.906Z,935.70
2023-04-29T08:28:06.911Z,935.74
2023-04-29T08:29:06.923Z,935.80
2023-04-29T08:30:06.943Z,935.79
2023-04-29T08:31:06.956Z,935.81
2023-04-29T08:32:07.332Z,935.86
2023-04-29T08:33:07.042Z,935.85
2023-04-29T08:34:06.996Z,935.91
2023-04-29T08:35:07.008Z,935.92
2023-04-29T08:36:07.015Z,935.94
2023-04-29T08:37:07.128Z,935.89
2023-04-29T08:38:07.072Z,935.93
2023-04-29T08:39:07.229Z,935.93
2023-04-29T08:40:07.073Z,935.91
2023-04-29T08:41:07.080Z,935.97
2023-04-29T08:42:07.116Z,935.97
2023-04-29T08:43:07.212Z,936.00
2023-04-29T08:44:07.128Z,936.01
2023-04-29T08:45:07.150Z,936.03
2023-04-29T08:46:07.185Z,936.05
2023-04-29T08:47:07.178Z,936.05
2023-04-29T08:48:07.434Z,936.08
2023-04-29T08:49:07.187Z,936.07
2023-04-29T08:50:07.202Z,936.09
2023-04-29T08:51:07.218Z,936.11
2023-04-29T08:52:07.223Z,936.09
2023-04-29T08:54:07.346Z,936.16
2023-04-29T08:55:07.257Z,936.15
2023-04-29T08:56:07.273Z,936.16
2023-04-29T08:57:07.298Z,936.19
2023-04-29T08:58:07.334Z,936.20
2023-04-29T08:59:07.314Z,936.19
2023-04-29T09:00:07.433Z,936.19
2023-04-29T09:01:07.360Z,936.20
2023-04-29T09:02:07.351Z,936.19
2023-04-29T09:03:07.439Z,936.22
2023-04-29T09:04:07.433Z,936.24
2023-04-29T09:05:07.445Z,936.24
2023-04-29T09:06:07.503Z,936.26
2023-04-29T09:07:07.427Z,936.32
2023-04-29T09:08:07.434Z,936.32
2023-04-29T09:09:07.444Z,936.34
2023-04-29T09:10:07.474Z,936.41
2023-04-29T09:11:07.478Z,936.37
2023-04-29T09:12:07.583Z,936.33
2023-04-29T09:13:07.494Z,936.37
2023-04-29T09:14:07.533Z,936.38
2023-04-29T09:15:07.519Z,936.44
2023-04-29T09:16:07.586Z,936.43
2023-04-29T09:17:07.547Z,936.47
2023-04-29T09:18:07.931Z,936.45
2023-04-29T09:19:07.587Z,936.50
2023-04-29T09:20:07.586Z,936.47
2023-04-29T09:21:07.613Z,936.45
2023-04-29T09:22:07.613Z,936.51
2023-04-29T09:23:07.632Z,936.51
2023-04-29T09:24:07.756Z,936.51
2023-04-29T09:25:07.661Z,936.49
2023-04-29T09:26:07.869Z,936.51
2023-04-29T09:27:07.685Z,936.53
2023-04-29T09:28:07.700Z,936.56
2023-04-29T09:29:07.851Z,936.55
2023-04-29T09:30:07.735Z,936.55
2023-04-29T09:31:07.779Z,936.58
2023-04-29T09:32:07.776Z,936.56
2023-04-29T09:33:07.798Z,936.58
2023-04-29T09:34:07.784Z,936.54
2023-04-29T09:35:07.887Z,936.58
2023-04-29T09:36:07.805Z,936.59
2023-04-29T09:37:07.818Z,936.56
2023-04-29T09:38:07.842Z,936.56
2023-04-29T09:39:07.852Z,936.57
2023-04-29T09:40:07.957Z,936.56
2023-04-29T09:41:07.862Z,936.59
2023-04-29T09:42:07.876Z,936.63
2023-04-29T09:43:07.894Z,936.58
2023-04-29T09:44:07.909Z,936.62
2023-04-29T09:45:07.923Z,936.61
2023-04-29T09:46:08.089Z,936.64
2023-04-29T09:47:07.946Z,936.66
2023-04-29T09:48:07.982Z,936.69
2023-04-29T09:49:07.967Z,936.65
2023-04-29T09:50:07.988Z,936.70
2023-04-29T09:51:07.999Z,936.69
2023-04-29T09:52:08.144Z,936.72
2023-04-29T09:53:08.029Z,936.72
2023-04-29T09:54:08.040Z,936.74
2023-04-29T09:55:08.086Z,936.78
2023-04-29T09:56:08.056Z,936.80
2023-04-29T09:57:08.070Z,936.79
2023-04-29T09:58:08.192Z,936.82
2023-04-29T09:59:08.096Z,936.83
2023-04-29T10:00:08.119Z,936.88
2023-04-29T10:01:08.151Z,936.89
2023-04-29T10:02:08.157Z,936.84
2023-04-29T10:03:08.251Z,936.85
2023-04-29T10:04:08.312Z,936.89
2023-04-29T10:05:08.256Z,936.87
2023-04-29T10:06:08.211Z,936.92
2023-04-29T10:07:08.200Z,936.97
2023-04-29T10:08:08.213Z,936.95
2023-04-29T10:09:08.325Z,937.00
2023-04-29T10:10:08.256Z,937.01
2023-04-29T10:11:08.257Z,936.97
2023-04-29T10:12:08.292Z,936.96
2023-04-29T10:13:08.278Z,936.97
2023-04-29T10:14:08.294Z,936.97
2023-04-29T10:15:08.415Z,936.99
2023-04-29T10:16:08.498Z,936.97
2023-04-29T10:17:08.331Z,936.98
2023-04-29T10:18:08.382Z,937.02
2023-04-29T10:19:08.366Z,936.98
2023-04-29T10:20:08.481Z,937.00
2023-04-29T10:21:08.391Z,937.02
2023-04-29T10:22:08.395Z,937.02
2023-04-29T10:23:08.408Z,937.02
2023-04-29T10:24:08.421Z,937.07
2023-04-29T10:25:08.447Z,937.03
2023-04-29T10:26:08.559Z,937.06
2023-04-29T10:27:08.469Z,937.09
2023-04-29T10:28:08.487Z,937.12
2023-04-29T10:29:08.559Z,937.08
2023-04-29T10:30:08.501Z,937.17
2023-04-29T10:31:08.631Z,937.12
2023-04-29T10:32:08.524Z,937.17
2023-04-29T10:33:08.589Z,937.14
2023-04-29T10:34:08.652Z,937.15
2023-04-29T10:35:08.567Z,937.11
2023-04-29T10:36:08.587Z,937.10
2023-04-29T10:37:08.689Z,937.11
2023-04-29T10:38:08.609Z,937.11
2023-04-29T10:39:08.623Z,937.14
2023-04-29T10:40:08.635Z,937.16
2023-04-29T10:41:08.644Z,937.15
2023-04-29T10:42:08.672Z,937.14
2023-04-29T10:43:08.768Z,937.14
2023-04-29T10:44:08.690Z,937.16
2023-04-29T10:45:08.701Z,937.17
2023-04-29T10:46:08.733Z,937.17
2023-04-29T10:47:08.726Z,937.16
2023-04-29T10:48:08.910Z,937.17
2023-04-29T10:49:08.749Z,937.13
2023-04-29T10:50:08.799Z,937.18
2023-04-29T10:51:08.786Z,937.18
2023-04-29T10:52:08.789Z,937.17
2023-04-29T10:53:08.815Z,937.19
2023-04-29T10:54:08.920Z,937.21
2023-04-29T10:55:08.831Z,937.22
2023-04-29T10:56:08.841Z,937.25
2023-04-29T10:57:08.857Z,937.24
2023-04-29T10:58:08.861Z,937.25
2023-04-29T10:59:08.984Z,937.25
2023-04-29T11:00:08.890Z,937.25
2023-04-29T11:01:08.948Z,937.26
2023-04-29T11:02:08.915Z,937.25
2023-04-29T11:03:08.993Z,937.24
2023-04-29T11:04:09.185Z,937.23
2023-04-29T11:05:09.045Z,937.23
2023-04-29T11:06:08.994Z,937.27
2023-04-29T11:07:08.989Z,937.25
2023-04-29T11:08:09.009Z,937.24
2023-04-29T11:09:09.145Z,937.23
2023-04-29T11:10:09.020Z,937.21
2023-04-29T11:11:09.033Z,937.25
2023-04-29T11:12:09.072Z,937.22
2023-04-29T11:13:09.068Z,937.20
2023-04-29T11:14:09.080Z,937.23
2023-04-29T11:15:09.196Z,937.26
2023-04-29T11:16:09.131Z,937.24
2023-04-29T11:17:09.114Z,937.25
2023-04-29T11:18:09.153Z,937.27
2023-04-29T11:19:09.171Z,937.26
2023-04-29T11:20:09.253Z,937.29
2023-04-29T11:21:09.190Z,937.28
2023-04-29T11:22:09.208Z,937.30
2023-04-29T11:23:09.193Z,937.30
2023-04-29T11:24:09.205Z,937.27
2023-04-29T11:25:09.337Z,937.26
2023-04-29T11:26:09.238Z,937.26
2023-04-29T11:27:09.252Z,937.28
2023-04-29T11:28:09.265Z,937.27
2023-04-29T11:29:09.275Z,937.28
2023-04-29T11:30:09.301Z,937.29
2023-04-29T11:31:09.421Z,937.28
2023-04-29T11:32:09.376Z,937.31
2023-04-29T11:33:09.470Z,937.27
2023-04-29T11:34:09.347Z,937.29
2023-04-29T11:35:09.370Z,937.33
2023-04-29T11:36:09.462Z,937.31
2023-04-29T11:37:09.386Z,937.37
2023-04-29T11:38:09.410Z,937.35
2023-04-29T11:39:09.411Z,937.35
2023-04-29T11:40:09.428Z,937.35
2023-04-29T11:41:09.435Z,937.38
2023-04-29T11:42:09.546Z,937.39
2023-04-29T11:43:09.460Z,937.44
2023-04-29T11:44:09.473Z,937.42
2023-04-29T11:45:09.489Z,937.44
2023-04-29T11:46:09.583Z,937.45
2023-04-29T11:47:09.507Z,937.50
2023-04-29T11:48:09.693Z,937.48
2023-04-29T11:49:09.540Z,937.50
2023-04-29T11:50:09.544Z,937.49
2023-04-29T11:51:09.562Z,937.47
2023-04-29T11:52:09.589Z,937.51
2023-04-29T11:53:09.591Z,937.50
2023-04-29T11:54:09.759Z,937.47
2023-04-29T11:55:09.619Z,937.50
2023-04-29T11:56:09.632Z,937.50
2023-04-29T11:57:09.643Z,937.53
2023-04-29T11:58:09.688Z,937.55
2023-04-29T11:59:09.669Z,937.60
2023-04-29T12:00:09.785Z,937.57
2023-04-29T12:01:09.706Z,937.53
2023-04-29T12:02:09.740Z,937.55
2023-04-29T12:03:09.951Z,937.55
2023-04-29T12:04:10.221Z,937.55
2023-04-29T12:05:10.142Z,937.60
2023-04-29T12:06:09.852Z,937.57
2023-04-29T12:07:09.779Z,937.63
2023-04-29T12:08:09.786Z,937.60
2023-04-29T12:09:09.845Z,937.59
2023-04-29T12:10:09.886Z,937.59
2023-04-29T12:11:09.926Z,937.62
2023-04-29T12:12:09.838Z,937.60
2023-04-29T12:13:10.443Z,937.61
2023-04-29T12:14:09.868Z,937.64
2023-04-29T12:15:09.887Z,937.62
2023-04-29T12:16:09.998Z,937.56
2023-04-29T12:17:09.901Z,937.60
2023-04-29T12:18:09.950Z,937.60
2023-04-29T12:19:09.930Z,937.59
2023-04-29T12:20:10.019Z,937.57
2023-04-29T12:21:10.069Z,937.61
2023-04-29T12:22:09.972Z,937.64
2023-04-29T12:23:10.181Z,937.65
2023-04-29T12:24:10.002Z,937.63
2023-04-29T12:25:10.009Z,937.70
2023-04-29T12:26:10.140Z,937.67
2023-04-29T12:27:10.048Z,937.67
2023-04-29T12:28:10.047Z,937.66
2023-04-29T12:29:10.053Z,937.70